createdAt,value
2019-04-30T00:01:37.481Z,8.10
2019-04-30T00:03:19.654Z,12.18
2019-04-30T00:04:55.930Z,12.07
2019-04-30T00:06:34.502Z,9.50
2019-04-30T00:08:06.029Z,7.12
2019-04-30T00:09:41.308Z,8.25
2019-04-30T00:11:19.391Z,7.28
2019-04-30T00:12:51.796Z,13.85
2019-04-30T00:14:32.138Z,10.70
2019-04-30T00:16:02.200Z,12.47
2019-04-30T00:17:36.405Z,7.87
2019-04-30T00:19:14.838Z,9.70
2019-04-30T00:20:47.094Z,6.55
2019-04-30T00:22:31.725Z,6.83
2019-04-30T00:24:00.750Z,7.87
2019-04-30T00:25:35.051Z,9.93
2019-04-30T00:27:09.714Z,9.78
2019-04-30T00:28:47.712Z,8.28
2019-04-30T00:30:19.849Z,8.85
2019-04-30T00:31:57.658Z,10.93
2019-04-30T00:33:29.955Z,8.20
2019-04-30T00:35:11.724Z,8.08
2019-04-30T00:36:45.920Z,11.18
2019-04-30T00:38:19.776Z,11.25
2019-04-30T00:39:55.578Z,7.37
2019-04-30T00:41:30.337Z,10.15
2019-04-30T00:43:08.867Z,12.80
2019-04-30T00:44:40.628Z,8.58
2019-04-30T00:46:17.297Z,9.23
2019-04-30T00:47:51.285Z,8.25
2019-04-30T00:49:26.656Z,10.15
2019-04-30T00:51:00.944Z,8.33
2019-04-30T00:52:37.041Z,8.18
2019-04-30T00:54:11.072Z,7.67
2019-04-30T00:55:48.464Z,7.65
2019-04-30T00:57:21.150Z,8.73
2019-04-30T00:58:57.752Z,10.00
2019-04-30T01:00:33.356Z,11.45
2019-04-30T01:02:19.915Z,10.18
2019-04-30T01:03:56.072Z,14.07
2019-04-30T01:05:30.338Z,10.15
2019-04-30T01:07:08.581Z,9.33
2019-04-30T01:08:41.775Z,11.88
2019-04-30T01:10:19.718Z,12.95
2019-04-30T01:11:52.547Z,16.60
2019-04-30T01:13:26.779Z,11.18
2019-04-30T01:15:01.689Z,7.40
2019-04-30T01:16:36.965Z,9.75
2019-04-30T01:18:11.153Z,9.95
2019-04-30T01:19:46.007Z,11.63
2019-04-30T01:21:21.281Z,11.85
2019-04-30T01:22:55.475Z,9.35
2019-04-30T01:24:31.701Z,12.43
2019-04-30T01:26:05.976Z,15.65
2019-04-30T01:27:45.786Z,16.52
2019-04-30T01:29:16.994Z,13.22
2019-04-30T01:30:53.841Z,13.03
2019-04-30T01:32:28.541Z,12.55
2019-04-30T01:34:05.126Z,14.60
2019-04-30T01:35:40.576Z,15.10
2019-04-30T01:37:14.779Z,13.83
2019-04-30T01:38:52.369Z,11.38
2019-04-30T01:40:24.868Z,13.75
2019-04-30T01:42:02.831Z,12.43
2019-04-30T01:43:34.927Z,12.07
2019-04-30T01:45:09.340Z,16.25
2019-04-30T01:46:48.202Z,17.12
2019-04-30T01:48:20.430Z,11.28
2019-04-30T01:49:55.922Z,8.70
2019-04-30T01:51:30.532Z,8.18
2019-04-30T01:53:08.867Z,9.35
2019-04-30T01:54:40.683Z,10.28
2019-04-30T01:56:25.524Z,9.73
2019-04-30T01:58:16.340Z,10.70
2019-04-30T02:00:09.717Z,18.75
2019-04-30T02:01:45.700Z,9.10
2019-04-30T02:03:20.380Z,13.90
2019-04-30T02:04:54.594Z,13.78
2019-04-30T02:06:29.449Z,10.82
2019-04-30T02:08:03.839Z,11.43
2019-04-30T02:09:38.798Z,11.75
2019-04-30T02:11:13.282Z,9.03
2019-04-30T02:12:49.202Z,9.68
2019-04-30T02:14:23.554Z,12.95
2019-04-30T02:15:59.223Z,16.87
2019-04-30T02:17:33.851Z,11.03
2019-04-30T02:19:09.134Z,12.13
2019-04-30T02:20:43.438Z,13.80
2019-04-30T02:22:18.944Z,11.40
2019-04-30T02:23:53.347Z,10.25
2019-04-30T02:25:29.354Z,12.43
2019-04-30T02:27:03.479Z,12.03
2019-04-30T02:28:39.258Z,13.35
2019-04-30T02:30:13.777Z,11.88
2019-04-30T02:31:50.074Z,15.03
2019-04-30T02:33:24.769Z,14.63
2019-04-30T02:35:19.294Z,15.32
2019-04-30T02:36:54.384Z,17.82
2019-04-30T02:38:30.341Z,16.93
2019-04-30T02:40:06.589Z,13.88
2019-04-30T02:41:41.810Z,13.00
2019-04-30T02:43:16.659Z,18.55
2019-04-30T02:44:51.730Z,15.90
2019-04-30T02:46:29.237Z,22.45
2019-04-30T02:48:04.824Z,18.67
2019-04-30T02:49:40.750Z,16.93
2019-04-30T02:51:22.540Z,17.77
2019-04-30T02:52:54.901Z,18.00
2019-04-30T02:54:30.949Z,23.02
2019-04-30T02:56:05.156Z,14.05
2019-04-30T02:57:40.070Z,13.38
2019-04-30T02:59:14.545Z,12.35
2019-04-30T03:00:49.597Z,15.68
2019-04-30T03:02:24.169Z,16.05
2019-04-30T03:03:59.783Z,16.23
2019-04-30T03:05:34.846Z,16.27
2019-04-30T03:07:09.813Z,15.98
2019-04-30T03:08:44.277Z,16.90
2019-04-30T03:10:20.020Z,16.40
2019-04-30T03:11:54.395Z,12.82
2019-04-30T03:13:29.954Z,15.72
2019-04-30T03:15:05.692Z,20.40
2019-04-30T03:17:00.199Z,15.38
2019-04-30T03:18:35.657Z,16.20
2019-04-30T03:20:32.654Z,16.85
2019-04-30T03:22:00.964Z,15.35
2019-04-30T03:23:35.188Z,19.87
2019-04-30T03:25:09.517Z,13.90
2019-04-30T03:26:43.966Z,18.00
2019-04-30T03:28:20.153Z,14.33
2019-04-30T03:29:54.062Z,13.90
2019-04-30T03:31:32.241Z,15.80
2019-04-30T03:33:04.194Z,25.72
2019-04-30T03:34:42.102Z,22.70
2019-04-30T03:36:14.324Z,18.87
2019-04-30T03:37:49.713Z,16.40
2019-04-30T03:39:24.320Z,17.35
2019-04-30T03:41:00.247Z,13.55
2019-04-30T03:42:34.453Z,15.85
2019-04-30T03:44:20.377Z,18.62
2019-04-30T03:45:44.577Z,15.48
2019-04-30T03:47:20.176Z,17.20
2019-04-30T03:48:55.069Z,17.32
2019-04-30T03:50:41.508Z,15.72
2019-04-30T03:52:05.180Z,19.05
2019-04-30T03:53:42.686Z,14.75
2019-04-30T03:55:15.615Z,14.58
2019-04-30T03:56:51.213Z,13.32
2019-04-30T03:58:25.424Z,15.18
2019-04-30T03:59:59.685Z,14.53
2019-04-30T04:01:35.538Z,13.20
2019-04-30T04:03:10.204Z,17.77
2019-04-30T04:04:55.260Z,19.73
2019-04-30T04:06:31.657Z,15.80
2019-04-30T04:08:10.064Z,14.03
2019-04-30T04:09:49.899Z,12.73
2019-04-30T04:11:25.943Z,14.70
2019-04-30T04:13:00.177Z,14.13
2019-04-30T04:14:34.379Z,16.27
2019-04-30T04:16:09.674Z,15.45
2019-04-30T04:17:44.400Z,12.70
2019-04-30T04:19:19.664Z,12.75
2019-04-30T04:21:07.637Z,14.85
2019-04-30T04:22:30.809Z,14.18
2019-04-30T04:24:05.226Z,12.40
2019-04-30T04:25:40.039Z,13.78
2019-04-30T04:27:14.470Z,18.55
2019-04-30T04:28:49.634Z,14.63
2019-04-30T04:30:24.307Z,18.37
2019-04-30T04:32:00.832Z,13.70
2019-04-30T04:33:34.416Z,14.30
2019-04-30T04:35:12.689Z,13.60
2019-04-30T04:36:45.596Z,12.82
2019-04-30T04:38:20.398Z,12.28
2019-04-30T04:39:55.132Z,12.25
2019-04-30T04:41:29.610Z,10.28
2019-04-30T04:43:04.013Z,15.10
2019-04-30T04:44:39.940Z,12.58
2019-04-30T04:46:14.195Z,14.73
2019-04-30T04:47:50.414Z,11.90
2019-04-30T04:49:24.871Z,13.15
2019-04-30T04:51:00.131Z,15.65
2019-04-30T04:52:34.869Z,10.82
2019-04-30T04:54:10.333Z,11.20
2019-04-30T04:55:44.940Z,11.88
2019-04-30T04:57:22.235Z,13.30
2019-04-30T04:58:55.034Z,12.45
2019-04-30T05:00:29.487Z,9.20
2019-04-30T05:02:22.041Z,15.63
2019-04-30T05:03:56.321Z,9.30
2019-04-30T05:05:30.580Z,15.85
2019-04-30T05:07:04.781Z,11.60
2019-04-30T05:08:39.669Z,10.53
2019-04-30T05:10:14.425Z,10.18
2019-04-30T05:11:48.815Z,10.25
2019-04-30T05:13:23.268Z,10.48
2019-04-30T05:14:59.577Z,11.78
2019-04-30T05:16:33.432Z,10.30
2019-04-30T05:18:09.149Z,9.93
2019-04-30T05:19:43.569Z,12.47
2019-04-30T05:21:18.842Z,9.20
2019-04-30T05:22:53.380Z,11.22
2019-04-30T05:24:28.652Z,12.95
2019-04-30T05:26:02.994Z,12.82
2019-04-30T05:27:39.063Z,10.63
2019-04-30T05:29:13.052Z,10.18
2019-04-30T05:30:49.238Z,11.45
2019-04-30T05:32:23.161Z,8.93
2019-04-30T05:33:58.705Z,10.30
2019-04-30T05:35:33.066Z,12.07
2019-04-30T05:37:09.020Z,9.40
2019-04-30T05:38:43.244Z,9.65
2019-04-30T05:40:18.857Z,13.60
2019-04-30T05:41:53.396Z,10.38
2019-04-30T05:43:28.975Z,13.85
2019-04-30T05:45:05.113Z,9.90
2019-04-30T05:46:39.810Z,10.10
2019-04-30T05:48:14.068Z,12.90
2019-04-30T05:49:49.098Z,12.05
2019-04-30T05:51:23.626Z,10.10
2019-04-30T05:52:59.176Z,14.20
2019-04-30T05:54:34.002Z,17.05
2019-04-30T05:56:09.436Z,16.12
2019-04-30T05:57:55.627Z,12.10
2019-04-30T05:59:20.625Z,9.53
2019-04-30T06:00:55.284Z,9.08
2019-04-30T06:02:33.610Z,9.98
2019-04-30T06:04:05.332Z,12.40
2019-04-30T06:05:39.538Z,9.58
2019-04-30T06:07:13.791Z,8.55
2019-04-30T06:09:10.588Z,11.68
2019-04-30T06:10:52.460Z,11.20
2019-04-30T06:12:39.166Z,11.25
2019-04-30T06:14:32.692Z,10.82
2019-04-30T06:16:08.859Z,11.70
2019-04-30T06:18:00.267Z,12.58
2019-04-30T06:19:29.624Z,10.78
2019-04-30T06:21:03.879Z,14.95
2019-04-30T06:22:38.571Z,12.18
2019-04-30T06:24:13.021Z,12.85
2019-04-30T06:25:57.332Z,9.58
2019-04-30T06:27:24.776Z,7.95
2019-04-30T06:28:59.370Z,8.83
2019-04-30T06:30:33.848Z,9.75
2019-04-30T06:32:08.739Z,13.43
2019-04-30T06:33:43.604Z,9.98
2019-04-30T06:35:19.339Z,9.90
2019-04-30T06:36:56.934Z,9.05
2019-04-30T06:38:30.220Z,9.08
2019-04-30T06:40:06.101Z,8.10
2019-04-30T06:41:41.059Z,6.05
2019-04-30T06:43:15.583Z,6.83
2019-04-30T06:44:50.784Z,12.05
2019-04-30T06:46:25.110Z,8.05
2019-04-30T06:48:02.832Z,11.63
2019-04-30T06:49:39.089Z,6.53
2019-04-30T06:51:13.208Z,12.53
2019-04-30T06:52:56.253Z,10.28
2019-04-30T06:54:23.288Z,8.80
2019-04-30T06:55:58.984Z,8.30
2019-04-30T06:57:33.564Z,8.30
2019-04-30T06:59:09.223Z,10.32
2019-04-30T07:00:44.140Z,10.38
2019-04-30T07:02:19.658Z,7.35
2019-04-30T07:03:56.770Z,6.45
2019-04-30T07:05:29.996Z,7.42
2019-04-30T07:07:04.272Z,7.67
2019-04-30T07:08:51.952Z,7.17
2019-04-30T07:10:23.664Z,8.45
2019-04-30T07:12:09.079Z,12.30
2019-04-30T07:13:45.299Z,9.28
2019-04-30T07:15:19.759Z,7.80
2019-04-30T07:16:54.456Z,7.45
2019-04-30T07:18:28.899Z,6.65
2019-04-30T07:20:04.076Z,8.48
2019-04-30T07:21:42.803Z,8.00
2019-04-30T07:23:14.216Z,6.80
2019-04-30T07:24:49.698Z,6.50
2019-04-30T07:26:24.763Z,6.95
2019-04-30T07:27:59.806Z,8.58
2019-04-30T07:29:34.219Z,6.42
2019-04-30T07:31:14.185Z,7.80
2019-04-30T07:32:44.547Z,8.15
2019-04-30T07:34:19.644Z,8.68
2019-04-30T07:35:54.204Z,6.22
2019-04-30T07:37:29.233Z,6.83
2019-04-30T07:39:05.915Z,6.17
2019-04-30T07:40:40.161Z,6.03
2019-04-30T07:42:14.464Z,5.67
2019-04-30T07:43:49.412Z,9.23
2019-04-30T07:45:25.704Z,5.75
2019-04-30T07:47:02.033Z,7.97
2019-04-30T07:48:36.044Z,7.62
2019-04-30T07:50:11.077Z,9.13
2019-04-30T07:51:46.721Z,6.00
2019-04-30T07:53:21.495Z,5.85
2019-04-30T07:54:55.719Z,6.12
2019-04-30T07:56:37.276Z,5.95
2019-04-30T07:58:09.006Z,6.87
2019-04-30T07:59:43.793Z,5.50
2019-04-30T08:01:19.595Z,6.08
2019-04-30T08:03:01.301Z,6.10
2019-04-30T08:04:52.917Z,5.72
2019-04-30T08:06:30.649Z,7.30
2019-04-30T08:08:17.666Z,6.87
2019-04-30T08:09:42.191Z,4.97
2019-04-30T08:11:23.805Z,7.83
2019-04-30T08:12:51.743Z,5.22
2019-04-30T08:14:26.257Z,4.78
2019-04-30T08:16:00.467Z,6.75
2019-04-30T08:17:34.877Z,9.18
2019-04-30T08:19:09.195Z,8.28
2019-04-30T08:20:43.708Z,9.45
2019-04-30T08:22:19.623Z,7.85
2019-04-30T08:23:54.171Z,6.80
2019-04-30T08:25:29.089Z,4.33
2019-04-30T08:27:03.387Z,5.08
2019-04-30T08:28:38.700Z,4.33
2019-04-30T08:30:23.752Z,5.33
2019-04-30T08:31:49.521Z,5.30
2019-04-30T08:33:23.764Z,6.12
2019-04-30T08:35:00.930Z,7.22
2019-04-30T08:36:33.959Z,3.85
2019-04-30T08:38:10.567Z,6.92
2019-04-30T08:39:44.060Z,5.40
2019-04-30T08:41:19.303Z,5.97
2019-04-30T08:42:54.423Z,5.42
2019-04-30T08:44:29.451Z,6.87
2019-04-30T08:46:04.196Z,7.72
2019-04-30T08:47:39.295Z,5.97
2019-04-30T08:49:14.111Z,8.13
2019-04-30T08:50:49.704Z,7.90
2019-04-30T08:52:24.449Z,9.05
2019-04-30T08:53:58.819Z,9.25
2019-04-30T08:55:34.041Z,7.30
2019-04-30T08:57:08.629Z,5.58
2019-04-30T08:58:42.980Z,6.70
2019-04-30T09:00:19.137Z,6.87
2019-04-30T09:01:54.576Z,7.17
2019-04-30T09:03:29.609Z,9.50
2019-04-30T09:05:09.468Z,7.55
2019-04-30T09:06:45.728Z,5.65
2019-04-30T09:08:20.268Z,3.80
2019-04-30T09:09:54.472Z,5.53
2019-04-30T09:11:35.511Z,4.90
2019-04-30T09:13:04.528Z,7.33
2019-04-30T09:14:40.575Z,6.83
2019-04-30T09:16:15.068Z,8.20
2019-04-30T09:18:00.693Z,5.45
2019-04-30T09:19:25.196Z,6.87
2019-04-30T09:21:05.982Z,7.90
2019-04-30T09:22:36.242Z,5.40
2019-04-30T09:24:10.593Z,7.08
2019-04-30T09:25:44.777Z,5.45
2019-04-30T09:27:19.633Z,5.10
2019-04-30T09:28:54.190Z,6.67
2019-04-30T09:30:29.959Z,4.95
2019-04-30T09:32:04.244Z,6.30
2019-04-30T09:33:39.354Z,7.15
2019-04-30T09:35:13.805Z,8.65
2019-04-30T09:36:49.020Z,6.10
2019-04-30T09:38:23.893Z,5.87
2019-04-30T09:39:59.193Z,6.15
2019-04-30T09:41:33.606Z,7.72
2019-04-30T09:43:08.667Z,5.28
2019-04-30T09:44:43.092Z,6.17
2019-04-30T09:46:24.626Z,5.50
2019-04-30T09:47:53.581Z,4.72
2019-04-30T09:49:29.431Z,4.10
2019-04-30T09:51:04.042Z,6.28
2019-04-30T09:52:39.637Z,6.37
2019-04-30T09:54:14.906Z,4.90
2019-04-30T09:55:49.717Z,6.92
2019-04-30T09:57:24.461Z,4.42
2019-04-30T09:58:59.349Z,7.75
2019-04-30T10:00:33.878Z,5.20
2019-04-30T10:02:09.293Z,5.47
2019-04-30T10:03:44.107Z,7.20
2019-04-30T10:05:20.170Z,5.33
2019-04-30T10:06:54.708Z,6.70
2019-04-30T10:08:30.685Z,3.67
2019-04-30T10:10:09.410Z,5.97
2019-04-30T10:11:50.332Z,7.62
2019-04-30T10:13:24.540Z,5.22
2019-04-30T10:14:59.293Z,4.78
2019-04-30T10:16:39.588Z,6.15
2019-04-30T10:18:14.233Z,10.65
2019-04-30T10:19:49.204Z,5.90
2019-04-30T10:21:23.617Z,3.83
2019-04-30T10:22:59.583Z,3.90
2019-04-30T10:24:34.609Z,3.87
2019-04-30T10:26:08.832Z,6.10
2019-04-30T10:27:43.101Z,5.47
2019-04-30T10:29:18.516Z,4.65
2019-04-30T10:30:52.934Z,6.85
2019-04-30T10:32:27.200Z,6.03
2019-04-30T10:34:01.406Z,5.72
2019-04-30T10:35:35.628Z,10.60
2019-04-30T10:37:10.844Z,7.28
2019-04-30T10:38:45.192Z,5.58
2019-04-30T10:40:20.325Z,4.37
2019-04-30T10:41:54.816Z,5.95
2019-04-30T10:43:31.966Z,7.58
2019-04-30T10:45:09.724Z,7.70
2019-04-30T10:46:44.193Z,5.12
2019-04-30T10:48:18.444Z,5.40
2019-04-30T10:49:53.113Z,5.20
2019-04-30T10:51:28.820Z,4.70
2019-04-30T10:53:03.352Z,6.30
2019-04-30T10:54:38.933Z,6.22
2019-04-30T10:56:13.637Z,5.17
2019-04-30T10:57:49.562Z,6.00
2019-04-30T10:59:23.925Z,4.17
2019-04-30T11:00:59.493Z,6.97
2019-04-30T11:02:34.293Z,7.12
2019-04-30T11:04:08.548Z,6.15
2019-04-30T11:05:42.753Z,9.53
2019-04-30T11:07:18.646Z,6.10
2019-04-30T11:08:53.242Z,8.58
2019-04-30T11:10:29.361Z,9.90
2019-04-30T11:12:04.240Z,14.80
2019-04-30T11:13:38.457Z,18.98
2019-04-30T11:15:12.925Z,23.10
2019-04-30T11:16:47.277Z,15.75
2019-04-30T11:18:23.261Z,10.48
2019-04-30T11:19:59.244Z,10.78
2019-04-30T11:21:33.985Z,6.72
2019-04-30T11:23:14.505Z,4.47
2019-04-30T11:24:56.472Z,5.45
2019-04-30T11:26:20.970Z,6.70
2019-04-30T11:27:56.311Z,5.05
2019-04-30T11:29:31.271Z,3.92
2019-04-30T11:31:25.562Z,6.12
2019-04-30T11:33:00.679Z,7.72
2019-04-30T11:34:34.980Z,6.08
2019-04-30T11:36:09.672Z,5.80
2019-04-30T11:37:43.952Z,4.35
2019-04-30T11:39:20.065Z,5.37
2019-04-30T11:40:54.279Z,3.22
2019-04-30T11:42:28.524Z,4.17
2019-04-30T11:44:02.808Z,6.05
2019-04-30T11:45:49.500Z,5.53
2019-04-30T11:47:25.210Z,5.15
2019-04-30T11:48:59.480Z,6.35
2019-04-30T11:50:33.692Z,9.45
2019-04-30T11:52:08.273Z,8.83
2019-04-30T11:53:42.528Z,9.73
2019-04-30T11:55:19.192Z,11.03
2019-04-30T11:56:53.205Z,7.28
2019-04-30T11:58:30.372Z,6.78
2019-04-30T12:00:08.536Z,6.22
2019-04-30T12:01:44.249Z,7.10
2019-04-30T12:03:19.155Z,5.97
2019-04-30T12:04:53.928Z,5.53
2019-04-30T12:06:28.538Z,6.53
2019-04-30T12:08:13.508Z,8.33
2019-04-30T12:10:09.394Z,4.37
2019-04-30T12:11:44.772Z,10.40
2019-04-30T12:13:26.761Z,9.60
2019-04-30T12:15:02.769Z,8.10
2019-04-30T12:16:39.446Z,6.70
2019-04-30T12:18:13.437Z,5.22
2019-04-30T12:19:48.831Z,5.78
2019-04-30T12:21:23.341Z,6.15
2019-04-30T12:22:59.144Z,9.40
2019-04-30T12:24:33.719Z,9.93
2019-04-30T12:26:09.134Z,7.00
2019-04-30T12:27:43.824Z,5.33
2019-04-30T12:29:19.114Z,7.53
2019-04-30T12:30:53.716Z,5.62
2019-04-30T12:32:29.849Z,4.83
2019-04-30T12:34:03.887Z,10.63
2019-04-30T12:35:38.581Z,6.58
2019-04-30T12:37:12.833Z,4.92
2019-04-30T12:38:47.048Z,4.62
2019-04-30T12:40:28.726Z,6.17
2019-04-30T12:41:59.242Z,5.83
2019-04-30T12:43:33.441Z,7.90
2019-04-30T12:45:09.547Z,6.60
2019-04-30T12:46:43.745Z,6.40
2019-04-30T12:48:22.910Z,8.63
2019-04-30T12:50:15.096Z,3.97
2019-04-30T12:51:59.963Z,3.37
2019-04-30T12:53:48.229Z,5.08
2019-04-30T12:55:33.368Z,6.55
2019-04-30T12:57:12.277Z,6.05
2019-04-30T12:58:46.504Z,6.58
2019-04-30T13:00:22.313Z,9.60
2019-04-30T13:01:56.569Z,5.20
2019-04-30T13:03:30.883Z,5.97
2019-04-30T13:05:08.824Z,8.30
2019-04-30T13:06:43.936Z,6.15
2019-04-30T13:08:20.707Z,7.85
2019-04-30T13:09:54.737Z,7.87
2019-04-30T13:11:30.783Z,8.88
2019-04-30T13:13:06.808Z,9.63
2019-04-30T13:14:51.351Z,7.65
2019-04-30T13:16:19.307Z,9.80
2019-04-30T13:17:53.684Z,6.60
2019-04-30T13:19:28.114Z,8.28
2019-04-30T13:21:02.453Z,6.70
2019-04-30T13:22:36.676Z,8.35
2019-04-30T13:24:10.999Z,7.45
2019-04-30T13:25:51.286Z,8.63
2019-04-30T13:27:23.133Z,8.73
2019-04-30T13:28:58.982Z,7.75
2019-04-30T13:30:33.264Z,7.67
2019-04-30T13:32:08.609Z,6.47
2019-04-30T13:33:50.062Z,5.12
2019-04-30T13:35:23.224Z,7.05
2019-04-30T13:36:59.290Z,6.80
2019-04-30T13:38:47.445Z,10.23
2019-04-30T13:40:21.299Z,7.75
2019-04-30T13:42:14.551Z,10.82
2019-04-30T13:43:48.568Z,8.30
2019-04-30T13:45:22.536Z,8.20
2019-04-30T13:46:57.068Z,7.70
2019-04-30T13:48:32.520Z,4.17
2019-04-30T13:50:09.300Z,5.10
2019-04-30T13:51:44.972Z,4.53
2019-04-30T13:53:19.226Z,4.25
2019-04-30T13:54:53.433Z,3.08
2019-04-30T13:56:28.675Z,6.65
2019-04-30T13:58:03.236Z,4.92
2019-04-30T13:59:37.525Z,5.05
2019-04-30T14:01:11.806Z,3.92
2019-04-30T14:02:50.549Z,3.85
2019-04-30T14:04:26.400Z,5.85
2019-04-30T14:06:00.769Z,7.50
2019-04-30T14:07:39.990Z,4.25
2019-04-30T14:09:14.329Z,3.67
2019-04-30T14:10:49.345Z,4.37
2019-04-30T14:12:23.920Z,3.75
2019-04-30T14:13:58.240Z,4.83
2019-04-30T14:15:32.915Z,4.53
2019-04-30T14:17:09.087Z,3.42
2019-04-30T14:18:43.017Z,4.25
2019-04-30T14:20:17.539Z,3.00
2019-04-30T14:21:52.196Z,2.60
2019-04-30T14:23:28.547Z,5.92
2019-04-30T14:25:02.336Z,8.90
2019-04-30T14:26:36.584Z,6.05
2019-04-30T14:28:10.925Z,7.08
2019-04-30T14:29:45.132Z,6.75
2019-04-30T14:31:20.835Z,4.25
2019-04-30T14:32:55.180Z,4.37
2019-04-30T14:34:29.658Z,4.83
2019-04-30T14:36:03.873Z,8.75
2019-04-30T14:37:38.878Z,8.05
2019-04-30T14:39:16.806Z,6.85
2019-04-30T14:40:51.039Z,7.65
2019-04-30T14:42:26.330Z,4.72
2019-04-30T14:44:09.183Z,5.37
2019-04-30T14:45:54.989Z,3.27
2019-04-30T14:47:34.897Z,4.80
2019-04-30T14:49:28.880Z,3.85
2019-04-30T14:51:04.180Z,6.12
2019-04-30T14:52:40.357Z,6.55
2019-04-30T14:54:19.987Z,7.40
2019-04-30T14:56:12.953Z,5.22
2019-04-30T14:57:51.940Z,4.22
2019-04-30T14:59:44.122Z,7.45
2019-04-30T15:01:23.795Z,4.12
2019-04-30T15:03:05.537Z,2.75
2019-04-30T15:04:39.744Z,4.03
2019-04-30T15:06:14.029Z,4.87
2019-04-30T15:07:48.536Z,3.02
2019-04-30T15:09:22.933Z,4.22
2019-04-30T15:10:57.217Z,5.20
2019-04-30T15:12:31.432Z,4.80
2019-04-30T15:14:05.956Z,3.77
2019-04-30T15:15:40.171Z,3.33
2019-04-30T15:17:14.401Z,3.60
2019-04-30T15:18:48.653Z,2.65
2019-04-30T15:20:23.205Z,5.03
2019-04-30T15:21:59.051Z,3.10
2019-04-30T15:23:34.943Z,2.98
2019-04-30T15:25:09.196Z,2.50
2019-04-30T15:26:43.522Z,4.28
2019-04-30T15:28:17.734Z,2.80
2019-04-30T15:29:57.046Z,5.17
2019-04-30T15:31:29.690Z,2.70
2019-04-30T15:33:14.796Z,3.70
2019-04-30T15:36:42.722Z,4.97
2019-04-30T15:38:19.261Z,3.00
2019-04-30T15:39:53.103Z,8.00
2019-04-30T15:41:27.379Z,4.42
2019-04-30T15:43:03.220Z,3.02
2019-04-30T15:44:45.269Z,5.53
2019-04-30T15:46:14.170Z,5.58
2019-04-30T15:47:48.684Z,8.15
2019-04-30T15:49:23.580Z,12.95
2019-04-30T15:50:59.055Z,5.87
2019-04-30T15:52:33.436Z,7.22
2019-04-30T15:54:07.701Z,5.42
2019-04-30T15:55:41.908Z,7.00
2019-04-30T15:57:18.836Z,8.60
2019-04-30T15:59:10.073Z,11.33
2019-04-30T16:00:44.368Z,5.95
2019-04-30T16:02:20.721Z,6.90
2019-04-30T16:03:56.674Z,7.45
2019-04-30T16:05:32.531Z,6.75
2019-04-30T16:07:08.462Z,4.45
2019-04-30T16:08:44.831Z,6.05
2019-04-30T16:10:20.724Z,6.78
2019-04-30T16:12:02.038Z,5.65
2019-04-30T16:13:39.463Z,9.20
2019-04-30T16:15:14.367Z,6.05
2019-04-30T16:16:50.204Z,6.78
2019-04-30T16:18:26.093Z,13.45
2019-04-30T16:20:00.402Z,12.53
2019-04-30T16:21:34.988Z,11.12
2019-04-30T16:23:09.239Z,12.07
2019-04-30T16:24:43.426Z,21.50
2019-04-30T16:26:17.686Z,11.25
2019-04-30T16:27:52.535Z,8.60
2019-04-30T16:29:26.753Z,14.78
2019-04-30T16:31:01.036Z,12.18
2019-04-30T16:32:35.249Z,13.93
2019-04-30T16:34:09.892Z,10.93
2019-04-30T16:35:45.608Z,16.37
2019-04-30T16:37:20.255Z,7.95
2019-04-30T16:38:54.508Z,4.47
2019-04-30T16:40:29.183Z,5.25
2019-04-30T16:42:03.386Z,8.10
2019-04-30T16:43:39.099Z,8.18
2019-04-30T16:45:13.595Z,6.47
2019-04-30T16:46:49.908Z,6.37
2019-04-30T16:48:24.240Z,7.60
2019-04-30T16:49:58.957Z,17.20
2019-04-30T16:51:33.300Z,12.30
2019-04-30T16:53:08.081Z,11.70
2019-04-30T16:54:42.359Z,16.05
2019-04-30T16:56:18.467Z,9.63
2019-04-30T16:57:52.456Z,11.20
2019-04-30T16:59:34.734Z,11.33
2019-04-30T17:01:10.581Z,12.73
2019-04-30T17:02:46.433Z,8.58
2019-04-30T17:04:22.309Z,10.28
2019-04-30T17:05:59.660Z,13.10
2019-04-30T17:07:54.189Z,17.35
2019-04-30T17:09:30.037Z,17.87
2019-04-30T17:11:11.878Z,18.27
2019-04-30T17:12:51.199Z,20.35
2019-04-30T17:14:23.622Z,19.25
2019-04-30T17:15:59.505Z,12.90
2019-04-30T17:17:38.630Z,12.95
2019-04-30T17:19:14.073Z,15.10
2019-04-30T17:20:49.387Z,11.95
2019-04-30T17:22:23.733Z,16.60
2019-04-30T17:23:58.859Z,11.75
2019-04-30T17:25:33.424Z,12.18
2019-04-30T17:27:18.806Z,17.17
2019-04-30T17:28:43.661Z,11.83
2019-04-30T17:30:24.170Z,13.00
2019-04-30T17:31:59.966Z,12.33
2019-04-30T17:33:34.216Z,11.10
2019-04-30T17:35:09.460Z,13.50
2019-04-30T17:36:44.205Z,14.43
2019-04-30T17:38:18.413Z,11.40
2019-04-30T17:39:52.959Z,11.95
2019-04-30T17:41:27.312Z,11.03
2019-04-30T17:43:01.869Z,9.68
2019-04-30T17:44:36.082Z,13.22
2019-04-30T17:46:10.403Z,11.03
2019-04-30T17:47:44.663Z,15.18
2019-04-30T17:49:19.918Z,13.40
2019-04-30T17:50:54.215Z,14.40
2019-04-30T17:52:29.850Z,11.93
2019-04-30T17:54:12.092Z,11.65
2019-04-30T17:55:50.390Z,13.18
2019-04-30T17:57:33.887Z,13.53
2019-04-30T17:59:01.859Z,15.13
2019-04-30T18:00:39.175Z,10.60
2019-04-30T18:02:15.625Z,11.57
2019-04-30T18:03:49.888Z,9.00
2019-04-30T18:05:25.187Z,11.95
2019-04-30T18:06:59.393Z,10.53
2019-04-30T18:08:34.205Z,11.38
2019-04-30T18:10:10.231Z,12.28
2019-04-30T18:11:44.501Z,12.25
2019-04-30T18:13:18.724Z,14.20
2019-04-30T18:14:53.371Z,13.38
2019-04-30T18:16:28.671Z,13.80
2019-04-30T18:18:11.005Z,13.65
2019-04-30T18:19:46.856Z,10.50
2019-04-30T18:21:26.474Z,13.90
2019-04-30T18:23:18.772Z,11.65
2019-04-30T18:24:59.171Z,14.03
2019-04-30T18:26:37.639Z,17.35
2019-04-30T18:28:12.242Z,17.17
2019-04-30T18:29:46.537Z,16.50
2019-04-30T18:31:20.833Z,15.50
2019-04-30T18:32:55.530Z,17.95
2019-04-30T18:34:29.776Z,14.80
2019-04-30T18:36:04.045Z,17.32
2019-04-30T18:37:38.713Z,20.72
2019-04-30T18:39:13.456Z,16.97
2019-04-30T18:40:49.494Z,19.00
2019-04-30T18:42:23.701Z,14.58
2019-04-30T18:43:59.662Z,10.28
2019-04-30T18:45:34.459Z,12.45
2019-04-30T18:47:09.140Z,21.17
2019-04-30T18:48:43.418Z,15.25
2019-04-30T18:50:17.732Z,20.40
2019-04-30T18:51:53.161Z,13.45
2019-04-30T18:53:29.134Z,11.88
2019-04-30T18:55:04.335Z,12.30
2019-04-30T18:56:38.981Z,13.13
2019-04-30T18:58:13.589Z,11.10
2019-04-30T18:59:47.887Z,22.73
2019-04-30T19:01:22.204Z,19.00
2019-04-30T19:02:58.527Z,17.85
2019-04-30T19:04:32.611Z,25.23
2019-04-30T19:06:16.526Z,14.90
2019-04-30T19:07:48.854Z,17.25
2019-04-30T19:09:44.636Z,19.17
2019-04-30T19:11:29.230Z,15.60
2019-04-30T19:13:05.289Z,13.75
2019-04-30T19:14:43.840Z,12.13
2019-04-30T19:16:40.013Z,14.70
2019-04-30T19:18:24.544Z,12.33
2019-04-30T19:20:15.423Z,12.90
2019-04-30T19:21:49.930Z,14.35
2019-04-30T19:23:25.329Z,13.50
2019-04-30T19:25:04.045Z,10.43
2019-04-30T19:26:35.399Z,13.08
2019-04-30T19:28:14.223Z,14.45
2019-04-30T19:29:46.539Z,16.30
2019-04-30T19:31:20.841Z,17.52
2019-04-30T19:32:55.077Z,20.60
2019-04-30T19:34:31.718Z,20.85
2019-04-30T19:36:05.751Z,20.50
2019-04-30T19:37:40.337Z,19.35
2019-04-30T19:39:16.740Z,18.00
2019-04-30T19:40:51.360Z,29.77
2019-04-30T19:42:25.596Z,19.32
2019-04-30T19:43:59.815Z,20.02
2019-04-30T19:45:35.492Z,21.42
2019-04-30T19:47:10.079Z,17.82
2019-04-30T19:48:44.290Z,18.10
2019-04-30T19:50:19.243Z,21.07
2019-04-30T19:52:07.619Z,20.17
2019-04-30T19:53:30.413Z,19.32
2019-04-30T19:55:05.194Z,17.12
2019-04-30T19:56:39.423Z,20.50
2019-04-30T19:58:25.363Z,14.10
2019-04-30T19:59:50.289Z,18.52
2019-04-30T20:01:24.601Z,15.88
2019-04-30T20:02:59.970Z,16.07
2019-04-30T20:04:36.443Z,16.52
2019-04-30T20:06:10.599Z,21.33
2019-04-30T20:07:44.922Z,23.42
2019-04-30T20:09:19.451Z,23.20
2019-04-30T20:10:53.880Z,25.37
2019-04-30T20:12:29.055Z,20.97
2019-04-30T20:14:03.525Z,21.05
2019-04-30T20:15:39.212Z,22.85
2019-04-30T20:17:13.676Z,24.27
2019-04-30T20:18:49.097Z,17.17
2019-04-30T20:20:23.568Z,24.77
2019-04-30T20:21:59.639Z,21.90
2019-04-30T20:23:33.959Z,19.80
2019-04-30T20:25:09.286Z,19.25
2019-04-30T20:26:43.821Z,20.12
2019-04-30T20:28:18.236Z,22.48
2019-04-30T20:29:52.460Z,36.68
2019-04-30T20:31:28.718Z,35.08
2019-04-30T20:33:04.490Z,37.90
2019-04-30T20:34:39.184Z,42.23
2019-04-30T20:36:15.467Z,50.35
2019-04-30T20:38:09.486Z,43.17
2019-04-30T20:39:45.444Z,34.85
2019-04-30T20:41:19.702Z,29.65
2019-04-30T20:42:55.432Z,29.77
2019-04-30T20:44:30.115Z,29.00
2019-04-30T20:46:04.809Z,30.20
2019-04-30T20:47:39.691Z,22.20
2019-04-30T20:49:14.208Z,24.45
2019-04-30T20:50:48.935Z,21.75
2019-04-30T20:52:23.155Z,19.23
2019-04-30T20:53:59.248Z,15.98
2019-04-30T20:55:33.625Z,15.08
2019-04-30T20:57:08.732Z,17.20
2019-04-30T20:58:54.934Z,16.00
2019-04-30T21:00:19.201Z,20.50